Marshall Army Air Field
KFRI : now visible

Airfield :











YOU CAN JOIN US ON...

 
LOGIN :

Register | Disclaimer

   EN    FR    IT 

 









Legend :    VFR   Marginal VFR   IFR   Intensive IFR   Very Intensive IFR
Visi :
Ceiling :
>= 8 km
>= 3000ft
5 to 8 km
1000 to 3000 ft
1500m to 5 km
500 to 1000 ft
800 to 1500m
200 to 500 ft
< 800m
< 200 ft
Symbols :   Thunderstorms  Fog  Heavy snow  Heavy precipitations  Wind > 20 kt






- Airport Elevation : 1065 ft


KFRI - Marshall Army Air Field

CURRENT METAR :
  • 181256Z AUTO 21003KT 10SM CLR 18/16 A2985 RMK AO2 SLP098 T01830159 $

EXPIRED METARs :
  • 181156Z AUTO 20007KT 10SM CLR 17/15 A2982 RMK AO2 SLP088 6//// 70002 T01660151 10194 20155 $

TAF TAF KFRI
Valid from the 18 at 12:00 until the 19 at 18:00 UTC


181200Z 1812/1918 25006KT 9999 FEW060 SCT100 QNH2980INS
BECMG 1813/1814 01010G20KT 9999 FEW100 QNH2982INS
BECMG 1820/1821 06006KT 9999 SKC QNH2978INS
BECMG 1902/1903 16009KT 9999 SKC QNH2968INS
BECMG 1914/1915 19010G20KT 9999 FEW120 QNH2955INS TX29/1821Z TN16/1812Z
KZKC FIR / North America



MET'MAP, your aeronautical weather chart ! - Copyright ORBIFLY December 2007 - Disclaimer

ORBIFLY MET'MAP TEAM :

Programming & Development : Alexandra Zaïnal
Original concept : Baudouin d'Aumeries
Technical & hardware support : Manuel Goepfert
Assistance : Marc-Olivier Méhu

Contact : metmap@orbifly.com




SOURCES & CREDITS :

   NOAA       Earth
Advisory